KGOO

Details ICAO KGOO
Name NEVADA CO AIR PARK
Region United States
Timezone America/Los_Angeles (UTC-7.0)
Plans Departing 3
Arriving 7
Stats Elevation 3,152 ft / 961 m (AMSL)
Location 39.224036° -121.003088°
Runways 1
Magnetic Variation 13.537° E
Sunrise 2018-05-25 12:44:32 UTC / 2018-05-25 05:44:32 Local
Sunset 2018-05-26 03:20:19 UTC / 2018-05-25 20:20:19 Local
Advertisement - Login to hide

Runways

ID Width Length Bearing (true) Bearing (mag) Surface Threshold Offset Overrun Length
07 75 ft / 23 m 4,341 ft / 1,323 m 87.27° 73.73° Asphalt 0 ft / 0 m 0 ft / 0 m
25 75 ft / 23 m 4,341 ft / 1,323 m 267.28° 253.74° Asphalt 0 ft / 0 m 0 ft / 0 m

Map

Weather


0- 5 10 15 20 25 30 35+ Temperature / ° C

Clouds and Precipitation
Forecast for 2018-05-25 12:00 UTC. Updated an hour ago

Ground ~20,000 ft ~40,000 ft Winds

METAR

KGOO 251235Z AUTO 14006KT 10SM OVC006 08/07 A3004 RMK AO1

TAF

Not found

Frequencies

Recorded 121.32 MHz AWOS 3
Approach 125.40 MHz NORCAL APP/DEP
Unicom 122.72 MHz CTAF/UNICOM
Warning: Do not use this data for real-world aviation or navigation. No guarantee of current accuracy is given.